Walnut Ridge, AR

5:29 AM CDT on May 26, 2015 (GMT -0500)
Newport | | Change Station
CLOSE
Current Station
Airport
Location: Newport,
Elevation: 240 ft
Nearby Weather Stations

Elev 240 ft 35.64 °N, 91.17 °W | Updated 33 minutes ago

Mostly Cloudy
Mostly Cloudy
65 °F
Feels Like 65 °F
N
17
Wind Variable Wind from WSW

Today
High -- | Low -- °F
--% Chance of Precip.
Yesterday
High -- | Low -- °F
Precip. -- in
5:50 AM 8:11 PM
First Quarter, 57% visible
Pressure 29.94 in
Visibility 10.0 miles
Clouds Scattered Clouds 700 ft
Scattered Clouds 9000 ft
Mostly Cloudy 11000 ft
Dew Point 65 °F
Humidity 100%
Rainfall 0.21 in
Snow Depth Not available.
UV 0 out of 12
Pollen .70 out of 12
Air Quality Not available.
Flu Activity No Activity
METAR KM19 260956Z AUTO 24015KT 10SM -RA SCT007 SCT090 BKN110 18/18 A2994 RMK AO2 T01830183 RAB03 P0000 PRESRR SLP136

More Conditions Fewer Conditions

Pressure 29.94 in
Visibility 10.0 miles
Clouds Scattered Clouds 700 ft
Scattered Clouds 9000 ft
Mostly Cloudy 11000 ft
Dew Point 65 °F
Humidity 100%
Rainfall 0.21 in
Snow Depth Not available.
UV 0 out of 12
Pollen .70 out of 12
Air Quality Not available.
Flu Activity No Activity
METAR KM19 260956Z AUTO 24015KT 10SM -RA SCT007 SCT090 BKN110 18/18 A2994 RMK AO2 T01830183 RAB03 P0000 PRESRR SLP136

More Conditions Fewer Conditions

10-Day Weather Forecast

Almanac

Astronomy

May. 26, 2015 Rise Set
Actual Time
Civil Twilight
Nautical Twilight
Astronomical Twilight
Moon
Length of Visible Light
Length of Day
Tomorrow will be .
, % of the Moon is Illuminated

Today's Extremes

State Highs State Lows

Community

WunderPhotos

Upload Photos

1,824,305 photos uploaded!

WunderBlogs® & News

Nearby

Air Quality

  Air Quality AQ Index Pollutant
Not available.

Snow Depth

Station Depth Elevation

Earthquake Activity

City Distance Mag. Time & Date
Minimum magnitude displayed is 2.5.

Coastal Water Temperatures

Place Temperature

Stations

Nearby Weather Stations

Station Location Temp. Windchill Dew Point Humidity Wind Precip. Elev Updated Type